sensor_id;sensor_type;location;lat;lon;timestamp;pressure;altitude;pressure_sealevel;temperature;humidity
38227;BME280;24026;49.446;8.576;2023-12-07T00:02:05;100902.84;;;13.08;44.51
38227;BME280;24026;49.446;8.576;2023-12-07T00:04:25;100895.91;;;13.07;44.52
38227;BME280;24026;49.446;8.576;2023-12-07T00:06:46;100899.63;;;13.06;44.59
38227;BME280;24026;49.446;8.576;2023-12-07T00:09:06;100900.69;;;13.05;44.58
38227;BME280;24026;49.446;8.576;2023-12-07T00:11:26;100900.94;;;13.03;44.52
38227;BME280;24026;49.446;8.576;2023-12-07T00:13:47;100895.84;;;13.02;44.62
38227;BME280;24026;49.446;8.576;2023-12-07T00:16:08;100896.88;;;13.01;44.63
38227;BME280;24026;49.446;8.576;2023-12-07T00:18:28;100908.59;;;13.00;44.69
38227;BME280;24026;49.446;8.576;2023-12-07T00:20:48;100910.69;;;12.97;44.53
38227;BME280;24026;49.446;8.576;2023-12-07T00:23:09;100911.78;;;12.96;44.60
38227;BME280;24026;49.446;8.576;2023-12-07T00:25:29;100908.28;;;12.96;44.61
38227;BME280;24026;49.446;8.576;2023-12-07T00:27:49;100905.84;;;12.94;44.67
38227;BME280;24026;49.446;8.576;2023-12-07T00:30:10;100913.84;;;12.94;44.66
38227;BME280;24026;49.446;8.576;2023-12-07T00:32:30;100909.59;;;12.93;44.64
38227;BME280;24026;49.446;8.576;2023-12-07T00:34:50;100919.69;;;12.91;44.70
38227;BME280;24026;49.446;8.576;2023-12-07T00:37:11;100923.41;;;12.90;44.81
38227;BME280;24026;49.446;8.576;2023-12-07T00:39:32;100922.63;;;12.90;44.63
38227;BME280;24026;49.446;8.576;2023-12-07T00:41:53;100920.97;;;12.89;44.76
38227;BME280;24026;49.446;8.576;2023-12-07T00:44:13;100919.34;;;12.88;44.68
38227;BME280;24026;49.446;8.576;2023-12-07T00:46:34;100917.75;;;12.87;44.63
38227;BME280;24026;49.446;8.576;2023-12-07T00:48:54;100921.47;;;12.86;44.82
38227;BME280;24026;49.446;8.576;2023-12-07T00:51:15;100920.91;;;12.84;44.72
38227;BME280;24026;49.446;8.576;2023-12-07T00:53:35;100925.44;;;12.83;44.80
38227;BME280;24026;49.446;8.576;2023-12-07T00:55:55;100921.16;;;12.82;44.80
38227;BME280;24026;49.446;8.576;2023-12-07T00:58:16;100931.81;;;12.82;44.83
38227;BME280;24026;49.446;8.576;2023-12-07T01:00:36;100936.34;;;12.82;44.90
38227;BME280;24026;49.446;8.576;2023-12-07T01:02:57;100936.59;;;12.80;44.80
38227;BME280;24026;49.446;8.576;2023-12-07T01:05:17;100935.78;;;12.79;44.85
38227;BME280;24026;49.446;8.576;2023-12-07T01:07:37;100936.84;;;12.78;44.88
38227;BME280;24026;49.446;8.576;2023-12-07T01:09:58;100935.22;;;12.77;44.86
38227;BME280;24026;49.446;8.576;2023-12-07T01:12:18;100939.75;;;12.77;44.82
38227;BME280;24026;49.446;8.576;2023-12-07T01:14:38;100940.78;;;12.76;44.90
38227;BME280;24026;49.446;8.576;2023-12-07T01:16:59;100942.66;;;12.75;44.82
38227;BME280;24026;49.446;8.576;2023-12-07T01:19:19;100941.84;;;12.75;44.92
38227;BME280;24026;49.446;8.576;2023-12-07T01:21:40;100947.44;;;12.73;44.88
38227;BME280;24026;49.446;8.576;2023-12-07T01:24:00;100945.78;;;12.72;44.89
38227;BME280;24026;49.446;8.576;2023-12-07T01:26:20;100955.91;;;12.70;44.82
38227;BME280;24026;49.446;8.576;2023-12-07T01:28:41;100958.56;;;12.70;44.90
38227;BME280;24026;49.446;8.576;2023-12-07T01:31:01;100964.94;;;12.69;44.96
38227;BME280;24026;49.446;8.576;2023-12-07T01:33:21;100963.34;;;12.68;44.93
38227;BME280;24026;49.446;8.576;2023-12-07T01:35:42;100967.84;;;12.68;44.88
38227;BME280;24026;49.446;8.576;2023-12-07T01:38:03;100962.75;;;12.66;44.89
38227;BME280;24026;49.446;8.576;2023-12-07T01:40:24;100965.41;;;12.66;44.81
38227;BME280;24026;49.446;8.576;2023-12-07T01:42:51;100962.19;;;12.64;44.92
38227;BME280;24026;49.446;8.576;2023-12-07T01:45:12;100961.41;;;12.64;44.92
38227;BME280;24026;49.446;8.576;2023-12-07T01:47:32;100968.59;;;12.63;44.89
38227;BME280;24026;49.446;8.576;2023-12-07T01:49:53;100966.16;;;12.62;44.98
38227;BME280;24026;49.446;8.576;2023-12-07T01:52:14;100977.88;;;12.60;44.88
38227;BME280;24026;49.446;8.576;2023-12-07T01:54:34;100959.44;;;12.59;44.92
38227;BME280;24026;49.446;8.576;2023-12-07T01:56:55;100965.84;;;12.58;44.78
38227;BME280;24026;49.446;8.576;2023-12-07T01:59:16;100970.34;;;12.57;44.98
38227;BME280;24026;49.446;8.576;2023-12-07T02:01:36;100967.91;;;12.56;44.98
38227;BME280;24026;49.446;8.576;2023-12-07T02:03:57;100964.47;;;12.55;45.07
38227;BME280;24026;49.446;8.576;2023-12-07T02:06:17;100967.13;;;12.55;45.02
38227;BME280;24026;49.446;8.576;2023-12-07T02:08:37;100956.69;;;12.54;44.85
38227;BME280;24026;49.446;8.576;2023-12-07T02:11:01;100958.00;;;12.51;44.93
38227;BME280;24026;49.446;8.576;2023-12-07T02:13:22;100957.16;;;12.51;44.93
38227;BME280;24026;49.446;8.576;2023-12-07T02:15:42;100963.34;;;12.51;44.98
38227;BME280;24026;49.446;8.576;2023-12-07T02:18:48;100958.22;;;12.50;45.04
38227;BME280;24026;49.446;8.576;2023-12-07T02:20:49;100954.97;;;12.48;45.03
38227;BME280;24026;49.446;8.576;2023-12-07T02:23:12;100959.50;;;12.47;44.95
38227;BME280;24026;49.446;8.576;2023-12-07T02:25:40;100959.75;;;12.46;44.99
38227;BME280;24026;49.446;8.576;2023-12-07T02:28:01;100963.47;;;12.45;44.94
38227;BME280;24026;49.446;8.576;2023-12-07T02:30:22;100962.88;;;12.42;45.10
38227;BME280;24026;49.446;8.576;2023-12-07T02:32:43;100969.84;;;12.44;45.11
38227;BME280;24026;49.446;8.576;2023-12-07T02:35:04;100979.94;;;12.41;44.96
38227;BME280;24026;49.446;8.576;2023-12-07T02:37:27;100963.38;;;12.39;45.01
38227;BME280;24026;49.446;8.576;2023-12-07T02:39:48;100964.44;;;12.38;45.08
38227;BME280;24026;49.446;8.576;2023-12-07T02:42:09;100959.09;;;12.38;45.12
38227;BME280;24026;49.446;8.576;2023-12-07T02:44:31;100957.47;;;12.37;45.13
38227;BME280;24026;49.446;8.576;2023-12-07T02:46:51;100960.38;;;12.36;45.01
38227;BME280;24026;49.446;8.576;2023-12-07T02:49:11;100957.94;;;12.34;45.07
38227;BME280;24026;49.446;8.576;2023-12-07T02:51:32;100956.91;;;12.35;45.04
38227;BME280;24026;49.446;8.576;2023-12-07T02:53:52;100956.59;;;12.32;45.14
38227;BME280;24026;49.446;8.576;2023-12-07T02:56:12;100961.13;;;12.31;45.04
38227;BME280;24026;49.446;8.576;2023-12-07T02:58:32;100964.81;;;12.30;45.03
38227;BME280;24026;49.446;8.576;2023-12-07T03:00:53;100968.50;;;12.29;45.16
38227;BME280;24026;49.446;8.576;2023-12-07T03:03:13;100969.59;;;12.28;45.06
38227;BME280;24026;49.446;8.576;2023-12-07T03:05:33;100965.28;;;12.27;45.11
38227;BME280;24026;49.446;8.576;2023-12-07T03:07:54;100965.53;;;12.26;45.24
38227;BME280;24026;49.446;8.576;2023-12-07T03:10:14;100963.91;;;12.25;45.08
38227;BME280;24026;49.446;8.576;2023-12-07T03:12:34;100971.09;;;12.24;45.18
38227;BME280;24026;49.446;8.576;2023-12-07T03:14:54;100976.66;;;12.22;45.13
38227;BME280;24026;49.446;8.576;2023-12-07T03:17:15;100979.56;;;12.21;44.99
38227;BME280;24026;49.446;8.576;2023-12-07T03:19:38;100984.09;;;12.20;45.22
38227;BME280;24026;49.446;8.576;2023-12-07T03:21:59;100979.78;;;12.19;45.09
38227;BME280;24026;49.446;8.576;2023-12-07T03:24:19;100979.22;;;12.17;45.10
38227;BME280;24026;49.446;8.576;2023-12-07T03:26:39;100980.28;;;12.16;44.91
38227;BME280;24026;49.446;8.576;2023-12-07T03:28:59;100982.94;;;12.16;45.11
38227;BME280;24026;49.446;8.576;2023-12-07T03:31:20;100978.09;;;12.13;45.10
38227;BME280;24026;49.446;8.576;2023-12-07T03:33:43;100980.53;;;12.15;45.01
38227;BME280;24026;49.446;8.576;2023-12-07T03:36:04;100985.03;;;12.14;45.07
38227;BME280;24026;49.446;8.576;2023-12-07T03:38:24;100980.19;;;12.11;45.18
38227;BME280;24026;49.446;8.576;2023-12-07T03:40:44;100987.34;;;12.11;45.07
38227;BME280;24026;49.446;8.576;2023-12-07T03:43:07;100980.44;;;12.10;45.05
38227;BME280;24026;49.446;8.576;2023-12-07T03:45:28;100978.78;;;12.09;45.06
38227;BME280;24026;49.446;8.576;2023-12-07T03:47:48;100987.03;;;12.07;45.08
38227;BME280;24026;49.446;8.576;2023-12-07T03:50:08;100984.59;;;12.05;45.08
38227;BME280;24026;49.446;8.576;2023-12-07T03:52:29;100984.84;;;12.04;45.08
38227;BME280;24026;49.446;8.576;2023-12-07T03:54:49;100984.03;;;12.03;45.05
38227;BME280;24026;49.446;8.576;2023-12-07T03:57:09;100987.50;;;12.04;45.04
38227;BME280;24026;49.446;8.576;2023-12-07T03:59:30;100985.06;;;12.02;45.15
38227;BME280;24026;49.446;8.576;2023-12-07T04:01:50;100982.63;;;12.01;45.03
38227;BME280;24026;49.446;8.576;2023-12-07T04:04:10;100989.03;;;12.00;45.13
38227;BME280;24026;49.446;8.576;2023-12-07T04:06:30;100983.94;;;11.98;45.17
38227;BME280;24026;49.446;8.576;2023-12-07T04:08:50;100983.38;;;11.96;45.08
38227;BME280;24026;49.446;8.576;2023-12-07T04:11:11;100987.88;;;11.96;45.03
38227;BME280;24026;49.446;8.576;2023-12-07T04:13:31;100986.25;;;11.95;45.20
38227;BME280;24026;49.446;8.576;2023-12-07T04:15:51;100995.28;;;11.94;44.97
38227;BME280;24026;49.446;8.576;2023-12-07T04:18:12;100992.63;;;11.94;44.98
38227;BME280;24026;49.446;8.576;2023-12-07T04:20:32;100998.19;;;11.92;45.00
38227;BME280;24026;49.446;8.576;2023-12-07T04:22:52;100996.59;;;11.91;45.03
38227;BME280;24026;49.446;8.576;2023-12-07T04:25:13;101000.03;;;11.92;45.07
38227;BME280;24026;49.446;8.576;2023-12-07T04:27:33;100993.28;;;11.89;45.18
38227;BME280;24026;49.446;8.576;2023-12-07T04:29:53;101000.25;;;11.90;44.98
38227;BME280;24026;49.446;8.576;2023-12-07T04:32:14;100995.94;;;11.89;44.99
38227;BME280;24026;49.446;8.576;2023-12-07T04:34:34;100994.34;;;11.88;45.05
38227;BME280;24026;49.446;8.576;2023-12-07T04:36:54;100994.34;;;11.88;44.99
38227;BME280;24026;49.446;8.576;2023-12-07T04:39:15;101004.19;;;11.87;44.99
38227;BME280;24026;49.446;8.576;2023-12-07T04:41:35;100999.91;;;11.86;44.86
38227;BME280;24026;49.446;8.576;2023-12-07T04:43:55;101011.84;;;11.84;45.13
38227;BME280;24026;49.446;8.576;2023-12-07T04:46:16;101014.50;;;11.84;44.90
38227;BME280;24026;49.446;8.576;2023-12-07T04:48:36;101019.81;;;11.84;44.91
38227;BME280;24026;49.446;8.576;2023-12-07T04:50:56;101017.38;;;11.82;44.86
38227;BME280;24026;49.446;8.576;2023-12-07T04:53:16;101013.94;;;11.82;45.08
38227;BME280;24026;49.446;8.576;2023-12-07T04:55:37;101020.28;;;11.81;45.08
38227;BME280;24026;49.446;8.576;2023-12-07T04:57:57;101025.97;;;11.84;44.93
38227;BME280;24026;49.446;8.576;2023-12-07T05:00:17;101026.09;;;11.90;44.81
38227;BME280;24026;49.446;8.576;2023-12-07T05:02:38;101025.16;;;11.96;44.64
38227;BME280;24026;49.446;8.576;2023-12-07T05:04:58;101022.69;;;12.06;44.59
38227;BME280;24026;49.446;8.576;2023-12-07T05:07:19;101015.72;;;12.17;44.52
38227;BME280;24026;49.446;8.576;2023-12-07T05:09:39;101013.81;;;12.29;44.04
38227;BME280;24026;49.446;8.576;2023-12-07T05:12:00;101019.94;;;12.41;43.83
38227;BME280;24026;49.446;8.576;2023-12-07T05:14:21;101008.38;;;12.53;43.56
38227;BME280;24026;49.446;8.576;2023-12-07T05:16:41;101011.81;;;12.65;43.39
38227;BME280;24026;49.446;8.576;2023-12-07T05:19:01;101009.09;;;12.77;43.26
38227;BME280;24026;49.446;8.576;2023-12-07T05:21:22;101013.56;;;12.88;43.06
38227;BME280;24026;49.446;8.576;2023-12-07T05:23:42;101009.97;;;13.00;42.76
38227;BME280;24026;49.446;8.576;2023-12-07T05:26:03;101009.09;;;13.11;42.55
38227;BME280;24026;49.446;8.576;2023-12-07T05:28:23;101013.56;;;13.22;42.26
38227;BME280;24026;49.446;8.576;2023-12-07T05:30:44;101005.72;;;13.32;42.20
38227;BME280;24026;49.446;8.576;2023-12-07T05:33:04;101004.03;;;13.43;42.03
38227;BME280;24026;49.446;8.576;2023-12-07T05:35:24;101006.84;;;13.53;41.86
38227;BME280;24026;49.446;8.576;2023-12-07T05:37:44;101012.31;;;13.64;41.55
38227;BME280;24026;49.446;8.576;2023-12-07T05:40:05;101010.81;;;13.73;41.43
38227;BME280;24026;49.446;8.576;2023-12-07T05:42:26;101009.09;;;13.84;41.26
38227;BME280;24026;49.446;8.576;2023-12-07T05:44:46;101009.47;;;13.93;40.94
38227;BME280;24026;49.446;8.576;2023-12-07T05:47:06;101001.81;;;14.01;41.00
38227;BME280;24026;49.446;8.576;2023-12-07T05:49:28;101000.34;;;14.11;40.76
38227;BME280;24026;49.446;8.576;2023-12-07T05:51:50;101013.00;;;14.20;40.55
38227;BME280;24026;49.446;8.576;2023-12-07T05:54:10;101006.38;;;14.28;40.36
38227;BME280;24026;49.446;8.576;2023-12-07T05:56:30;101017.47;;;14.37;40.21
38227;BME280;24026;49.446;8.576;2023-12-07T05:58:52;101014.34;;;14.45;40.09
38227;BME280;24026;49.446;8.576;2023-12-07T06:01:12;101017.63;;;14.52;39.88
38227;BME280;24026;49.446;8.576;2023-12-07T06:03:37;101009.16;;;14.60;39.75
38227;BME280;24026;49.446;8.576;2023-12-07T06:05:57;101017.00;;;14.67;39.61
38227;BME280;24026;49.446;8.576;2023-12-07T06:08:18;101013.84;;;14.75;39.26
38227;BME280;24026;49.446;8.576;2023-12-07T06:10:39;101015.50;;;14.81;39.15
38227;BME280;24026;49.446;8.576;2023-12-07T06:13:01;101006.22;;;14.89;39.15
38227;BME280;24026;49.446;8.576;2023-12-07T06:15:21;101007.03;;;14.95;39.04
38227;BME280;24026;49.446;8.576;2023-12-07T06:17:42;101003.09;;;15.03;38.92
38227;BME280;24026;49.446;8.576;2023-12-07T06:20:02;101003.69;;;15.10;38.88
38227;BME280;24026;49.446;8.576;2023-12-07T06:22:23;101001.63;;;15.17;38.75
38227;BME280;24026;49.446;8.576;2023-12-07T06:24:44;101008.34;;;15.25;38.59
38227;BME280;24026;49.446;8.576;2023-12-07T06:27:07;101007.31;;;15.31;38.42
38227;BME280;24026;49.446;8.576;2023-12-07T06:29:29;101010.56;;;15.38;38.44
38227;BME280;24026;49.446;8.576;2023-12-07T06:31:49;101015.97;;;15.43;38.32
38227;BME280;24026;49.446;8.576;2023-12-07T06:34:10;101018.41;;;15.50;38.14
38227;BME280;24026;49.446;8.576;2023-12-07T06:36:32;101014.69;;;15.56;37.90
38227;BME280;24026;49.446;8.576;2023-12-07T06:38:53;101013.97;;;15.66;37.70
38227;BME280;24026;49.446;8.576;2023-12-07T06:41:15;101017.50;;;15.77;37.67
38227;BME280;24026;49.446;8.576;2023-12-07T06:43:38;101018.09;;;15.84;37.54
38227;BME280;24026;49.446;8.576;2023-12-07T06:46:01;101019.97;;;15.88;37.49
38227;BME280;24026;49.446;8.576;2023-12-07T06:48:21;101019.19;;;15.93;37.33
38227;BME280;24026;49.446;8.576;2023-12-07T06:50:44;101028.34;;;15.97;37.30
38227;BME280;24026;49.446;8.576;2023-12-07T06:53:05;101019.50;;;16.02;37.01
38227;BME280;24026;49.446;8.576;2023-12-07T06:55:25;101021.94;;;16.08;36.91
38227;BME280;24026;49.446;8.576;2023-12-07T06:57:45;101023.31;;;16.16;36.86
38227;BME280;24026;49.446;8.576;2023-12-07T07:00:08;101026.53;;;16.23;36.68
38227;BME280;24026;49.446;8.576;2023-12-07T07:02:32;101023.88;;;16.34;36.57
38227;BME280;24026;49.446;8.576;2023-12-07T07:04:53;101024.72;;;16.44;36.31
38227;BME280;24026;49.446;8.576;2023-12-07T07:07:15;101025.28;;;16.52;36.20
38227;BME280;24026;49.446;8.576;2023-12-07T07:09:35;101021.00;;;16.56;36.07
38227;BME280;24026;49.446;8.576;2023-12-07T07:11:55;101023.69;;;16.56;35.82
38227;BME280;24026;49.446;8.576;2023-12-07T07:14:16;101025.81;;;16.54;35.85
38227;BME280;24026;49.446;8.576;2023-12-07T07:16:36;101025.78;;;16.48;35.90
38227;BME280;24026;49.446;8.576;2023-12-07T07:18:58;101027.94;;;16.41;35.83
38227;BME280;24026;49.446;8.576;2023-12-07T07:21:18;101028.19;;;16.35;36.05
38227;BME280;24026;49.446;8.576;2023-12-07T07:23:39;101034.84;;;16.27;36.18
38227;BME280;24026;49.446;8.576;2023-12-07T07:26:01;101042.34;;;16.20;36.23
38227;BME280;24026;49.446;8.576;2023-12-07T07:28:23;101047.44;;;16.11;36.11
38227;BME280;24026;49.446;8.576;2023-12-07T07:30:45;101050.59;;;16.03;36.34
38227;BME280;24026;49.446;8.576;2023-12-07T07:33:07;101054.06;;;15.98;36.30
38227;BME280;24026;49.446;8.576;2023-12-07T07:35:27;101061.81;;;15.95;36.36
38227;BME280;24026;49.446;8.576;2023-12-07T07:37:49;101056.19;;;15.91;36.38
38227;BME280;24026;49.446;8.576;2023-12-07T07:40:11;101058.59;;;15.92;36.46
38227;BME280;24026;49.446;8.576;2023-12-07T07:42:34;101061.03;;;15.94;36.21
38227;BME280;24026;49.446;8.576;2023-12-07T07:44:54;101054.06;;;15.98;36.14
38227;BME280;24026;49.446;8.576;2023-12-07T07:47:15;101058.13;;;16.06;36.30
38227;BME280;24026;49.446;8.576;2023-12-07T07:49:36;101060.31;;;16.14;36.01
38227;BME280;24026;49.446;8.576;2023-12-07T07:51:57;101063.28;;;16.23;36.12
38227;BME280;24026;49.446;8.576;2023-12-07T07:54:17;101063.56;;;16.32;36.01
38227;BME280;24026;49.446;8.576;2023-12-07T07:56:39;101067.63;;;16.39;36.03
38227;BME280;24026;49.446;8.576;2023-12-07T07:59:03;101065.50;;;16.46;35.93
38227;BME280;24026;49.446;8.576;2023-12-07T08:01:23;101059.09;;;16.53;35.67
38227;BME280;24026;49.446;8.576;2023-12-07T08:03:47;101056.94;;;16.60;35.66
38227;BME280;24026;49.446;8.576;2023-12-07T08:06:07;101054.28;;;16.70;35.66
38227;BME280;24026;49.446;8.576;2023-12-07T08:08:28;101055.91;;;16.76;35.58
38227;BME280;24026;49.446;8.576;2023-12-07T08:10:48;101045.69;;;16.83;35.30
38227;BME280;24026;49.446;8.576;2023-12-07T08:13:10;101040.63;;;16.92;35.36
38227;BME280;24026;49.446;8.576;2023-12-07T08:15:31;101043.06;;;16.99;35.39
38227;BME280;24026;49.446;8.576;2023-12-07T08:17:56;101046.28;;;17.06;35.18
38227;BME280;24026;49.446;8.576;2023-12-07T08:20:16;101040.91;;;17.11;34.97
38227;BME280;24026;49.446;8.576;2023-12-07T08:22:38;101033.66;;;17.17;34.89
38227;BME280;24026;49.446;8.576;2023-12-07T08:24:59;101019.16;;;17.23;34.88
38227;BME280;24026;49.446;8.576;2023-12-07T08:27:20;101019.94;;;17.29;34.77
38227;BME280;24026;49.446;8.576;2023-12-07T08:29:40;101014.03;;;17.32;34.77
38227;BME280;24026;49.446;8.576;2023-12-07T08:32:00;101016.44;;;17.33;34.66
38227;BME280;24026;49.446;8.576;2023-12-07T08:34:21;101009.44;;;17.32;34.88
38227;BME280;24026;49.446;8.576;2023-12-07T08:36:41;101004.66;;;17.29;34.86
38227;BME280;24026;49.446;8.576;2023-12-07T08:39:02;101008.94;;;17.25;34.92
38227;BME280;24026;49.446;8.576;2023-12-07T08:41:25;101011.91;;;17.18;35.01
38227;BME280;24026;49.446;8.576;2023-12-07T08:43:46;101015.94;;;17.11;35.07
38227;BME280;24026;49.446;8.576;2023-12-07T08:46:08;101015.13;;;17.00;35.21
38227;BME280;24026;49.446;8.576;2023-12-07T08:48:31;101018.34;;;16.92;35.49
38227;BME280;24026;49.446;8.576;2023-12-07T08:50:52;101017.81;;;16.84;35.58
38227;BME280;24026;49.446;8.576;2023-12-07T08:53:12;101021.81;;;16.77;35.68
38227;BME280;24026;49.446;8.576;2023-12-07T08:55:32;101024.75;;;16.70;35.83
38227;BME280;24026;49.446;8.576;2023-12-07T08:57:53;101023.41;;;16.62;35.87
38227;BME280;24026;49.446;8.576;2023-12-07T09:00:14;101021.00;;;16.56;35.83
38227;BME280;24026;49.446;8.576;2023-12-07T09:02:34;101024.72;;;16.49;35.94
38227;BME280;24026;49.446;8.576;2023-12-07T09:04:55;101018.28;;;16.45;35.99
38227;BME280;24026;49.446;8.576;2023-12-07T09:07:16;101023.94;;;16.44;36.09
38227;BME280;24026;49.446;8.576;2023-12-07T09:09:36;101014.53;;;16.46;35.96
38227;BME280;24026;49.446;8.576;2023-12-07T09:11:57;101019.09;;;16.51;35.83
38227;BME280;24026;49.446;8.576;2023-12-07T09:14:17;101013.47;;;16.58;35.80
38227;BME280;24026;49.446;8.576;2023-12-07T09:16:45;101012.13;;;16.65;35.81
38227;BME280;24026;49.446;8.576;2023-12-07T09:19:05;101017.25;;;16.77;35.81
38227;BME280;24026;49.446;8.576;2023-12-07T09:21:26;101015.13;;;16.90;35.63
38227;BME280;24026;49.446;8.576;2023-12-07T09:23:48;101004.94;;;17.02;35.28
38227;BME280;24026;49.446;8.576;2023-12-07T09:26:08;101014.06;;;17.16;35.19
38227;BME280;24026;49.446;8.576;2023-12-07T09:28:31;101015.13;;;17.31;35.18
38227;BME280;24026;49.446;8.576;2023-12-07T09:30:52;101014.81;;;17.43;34.69
38227;BME280;24026;49.446;8.576;2023-12-07T09:33:13;101011.00;;;17.54;34.68
38227;BME280;24026;49.446;8.576;2023-12-07T09:35:34;101018.25;;;17.64;34.75
38227;BME280;24026;49.446;8.576;2023-12-07T09:37:55;101003.97;;;17.73;34.62
38227;BME280;24026;49.446;8.576;2023-12-07T09:40:20;101009.59;;;17.82;34.34
38227;BME280;24026;49.446;8.576;2023-12-07T09:42:40;101006.59;;;17.94;34.45
38227;BME280;24026;49.446;8.576;2023-12-07T09:45:04;101011.38;;;18.07;34.22
38227;BME280;24026;49.446;8.576;2023-12-07T09:47:26;101012.69;;;18.15;33.96
38227;BME280;24026;49.446;8.576;2023-12-07T09:49:47;101009.19;;;18.20;34.03
38227;BME280;24026;49.446;8.576;2023-12-07T09:52:08;101015.38;;;18.20;33.64
38227;BME280;24026;49.446;8.576;2023-12-07T09:54:29;101007.84;;;18.17;34.08
38227;BME280;24026;49.446;8.576;2023-12-07T09:56:51;101003.28;;;18.12;33.99
38227;BME280;24026;49.446;8.576;2023-12-07T09:59:14;101003.59;;;18.06;34.02
38227;BME280;24026;49.446;8.576;2023-12-07T10:01:34;100998.00;;;17.97;34.21
38227;BME280;24026;49.446;8.576;2023-12-07T10:06:47;101001.78;;;17.81;34.59
38227;BME280;24026;49.446;8.576;2023-12-07T10:09:11;100993.50;;;17.72;34.72
38227;BME280;24026;49.446;8.576;2023-12-07T10:11:32;100991.09;;;17.65;34.67
38227;BME280;24026;49.446;8.576;2023-12-07T10:13:54;100986.00;;;17.58;34.71
38227;BME280;24026;49.446;8.576;2023-12-07T10:16:15;100994.38;;;17.52;35.03
38227;BME280;24026;49.446;8.576;2023-12-07T10:18:38;100991.44;;;17.43;35.06
38227;BME280;24026;49.446;8.576;2023-12-07T10:21:01;100978.03;;;17.38;35.11
38227;BME280;24026;49.446;8.576;2023-12-07T10:23:25;100975.63;;;17.31;35.26
38227;BME280;24026;49.446;8.576;2023-12-07T10:25:48;100973.75;;;17.27;35.23
38227;BME280;24026;49.446;8.576;2023-12-07T10:28:09;100973.75;;;17.21;35.33
38227;BME280;24026;49.446;8.576;2023-12-07T10:30:33;100980.47;;;17.19;35.33
38227;BME280;24026;49.446;8.576;2023-12-07T10:32:58;100978.34;;;17.16;35.58
38227;BME280;24026;49.446;8.576;2023-12-07T10:35:20;100974.56;;;17.12;35.77
38227;BME280;24026;49.446;8.576;2023-12-07T10:37:42;100972.44;;;17.09;35.58
38227;BME280;24026;49.446;8.576;2023-12-07T10:40:04;100974.84;;;17.05;35.71
38227;BME280;24026;49.446;8.576;2023-12-07T10:42:27;100973.53;;;17.02;35.89
38227;BME280;24026;49.446;8.576;2023-12-07T10:44:57;100959.53;;;17.06;35.92
38227;BME280;24026;49.446;8.576;2023-12-07T10:47:25;100951.19;;;17.12;35.87
38227;BME280;24026;49.446;8.576;2023-12-07T10:49:46;100946.34;;;17.25;35.48
38227;BME280;24026;49.446;8.576;2023-12-07T10:52:12;100940.94;;;17.40;35.39
38227;BME280;24026;49.446;8.576;2023-12-07T10:54:37;100928.00;;;17.57;35.22
38227;BME280;24026;49.446;8.576;2023-12-07T10:56:59;100919.81;;;17.78;34.76
38227;BME280;24026;49.446;8.576;2023-12-07T10:59:23;100917.59;;;17.95;34.61
38227;BME280;24026;49.446;8.576;2023-12-07T11:01:44;100913.19;;;18.15;34.26
38227;BME280;24026;49.446;8.576;2023-12-07T11:04:06;100907.69;;;18.30;33.99
38227;BME280;24026;49.446;8.576;2023-12-07T11:06:28;100897.84;;;18.50;34.02
38227;BME280;24026;49.446;8.576;2023-12-07T11:08:56;100896.63;;;18.66;33.47
38227;BME280;24026;49.446;8.576;2023-12-07T11:11:28;100897.53;;;18.86;33.23
38227;BME280;24026;49.446;8.576;2023-12-07T11:13:59;100894.72;;;19.01;33.17
38227;BME280;24026;49.446;8.576;2023-12-07T11:16:32;100884.59;;;19.12;32.92
38227;BME280;24026;49.446;8.576;2023-12-07T11:18:57;100880.78;;;19.18;32.90
38227;BME280;24026;49.446;8.576;2023-12-07T11:21:18;100884.78;;;19.21;32.94
38227;BME280;24026;49.446;8.576;2023-12-07T11:23:38;100879.66;;;19.19;32.95
38227;BME280;24026;49.446;8.576;2023-12-07T11:25:59;100876.75;;;19.16;32.93
38227;BME280;24026;49.446;8.576;2023-12-07T11:28:19;100869.84;;;19.10;33.27
38227;BME280;24026;49.446;8.576;2023-12-07T11:30:53;100863.19;;;19.02;33.28
38227;BME280;24026;49.446;8.576;2023-12-07T11:33:15;100872.16;;;18.92;33.36
38227;BME280;24026;49.446;8.576;2023-12-07T11:38:14;100838.94;;;18.73;33.37
38227;BME280;24026;49.446;8.576;2023-12-07T11:40:42;100838.50;;;18.65;33.58
38227;BME280;24026;49.446;8.576;2023-12-07T11:43:02;100842.63;;;18.58;33.72
38227;BME280;24026;49.446;8.576;2023-12-07T11:48:11;100838.19;;;18.43;33.88
38227;BME280;24026;49.446;8.576;2023-12-07T11:50:32;100829.38;;;18.32;34.11
38227;BME280;24026;49.446;8.576;2023-12-07T11:52:55;100822.44;;;18.26;34.37
38227;BME280;24026;49.446;8.576;2023-12-07T11:55:16;100827.34;;;18.19;34.44
38227;BME280;24026;49.446;8.576;2023-12-07T11:57:36;100821.22;;;18.13;34.42
38227;BME280;24026;49.446;8.576;2023-12-07T11:59:56;100819.63;;;18.07;34.69
38227;BME280;24026;49.446;8.576;2023-12-07T12:02:17;100810.00;;;18.01;34.58
38227;BME280;24026;49.446;8.576;2023-12-07T12:04:37;100808.97;;;17.96;34.89
38227;BME280;24026;49.446;8.576;2023-12-07T12:06:58;100809.53;;;17.93;35.03
38227;BME280;24026;49.446;8.576;2023-12-07T12:09:18;100802.00;;;17.90;34.82
38227;BME280;24026;49.446;8.576;2023-12-07T12:11:43;100806.59;;;17.85;35.09
38227;BME280;24026;49.446;8.576;2023-12-07T12:14:04;100803.69;;;17.81;34.95
38227;BME280;24026;49.446;8.576;2023-12-07T12:16:24;100799.91;;;17.77;35.12
38227;BME280;24026;49.446;8.576;2023-12-07T12:18:44;100796.19;;;17.73;35.34
38227;BME280;24026;49.446;8.576;2023-12-07T12:21:06;100789.25;;;17.67;35.45
38227;BME280;24026;49.446;8.576;2023-12-07T12:23:28;100787.38;;;17.62;35.65
38227;BME280;24026;49.446;8.576;2023-12-07T12:25:49;100775.88;;;17.56;35.68
38227;BME280;24026;49.446;8.576;2023-12-07T12:28:09;100771.06;;;17.53;35.75